Date,TemperatureHighF,TemperatureAvgF,TemperatureLowF,DewpointHighF,DewpointAvgF,DewpointLowF,HumidityHigh,HumidityAvg,HumidityLow,PressureMaxIn,PressureMinIn,WindSpeedMaxMPH,WindSpeedAvgMPH,GustSpeedMaxMPH,PrecipitationSumIn
2013-3-1,48,43,36,37,32,28,92,68,50,29.70,29.53,15,4,17,0.01
2013-3-2,41,38,34,32,29,28,80,68,61,29.71,29.63,8,3,14,0.00
2013-3-3,40,36,32,29,26,25,80,70,57,29.66,29.59,10,4,14,0.00
2013-3-4,42,35,31,26,24,22,77,63,52,29.79,29.64,18,6,23,0.00
2013-3-5,48,39,32,35,28,23,84,65,50,30.04,29.79,14,4,19,0.00
2013-3-6,44,40,33,37,34,30,88,80,67,30.02,29.90,25,8,40,0.00
2013-3-7,41,37,34,33,31,29,89,78,67,29.97,29.88,24,12,33,0.00
2013-3-8,41,36,33,34,31,27,91,84,59,30.10,29.90,13,6,27,0.10
2013-3-9,54,42,31,30,23,15,86,52,21,30.34,30.10,15,4,21,0.00
2013-3-10,45,36,28,35,31,26,91,82,64,30.39,30.32,8,2,10,0.00
2013-3-11,50,43,37,44,39,34,91,85,79,30.33,30.14,8,2,11,0.00
2013-3-12,53,50,41,52,47,39,94,90,84,30.14,29.73,17,4,22,0.72
2013-3-13,52,44,35,46,30,24,93,61,35,29.82,29.73,11,4,19,0.00
2013-3-14,39,33,30,31,20,12,86,60,40,29.87,29.77,19,4,27,0.00
2013-3-15,43,35,28,30,18,10,70,52,35,29.91,29.69,13,4,26,0.00
2013-3-16,41,36,31,30,21,6,80,57,23,29.87,29.72,9,2,15,0.00
2013-3-17,38,34,29,29,14,6,84,47,27,30.30,29.88,14,3,23,0.00
2013-3-18,35,30,24,29,13,2,88,51,28,30.44,30.14,10,3,14,0.00
2013-3-19,41,36,32,37,33,29,92,88,83,30.13,29.58,12,4,19,0.68
2013-3-20,43,35,29,31,22,18,88,61,36,29.82,29.71,13,2,25,0.00
2013-3-21,38,33,29,27,24,20,80,69,56,29.82,29.60,10,3,17,0.00
2013-3-22,41,34,27,24,18,13,67,52,40,29.80,29.64,11,3,20,0.00
2013-3-23,45,37,28,25,21,17,84,55,34,29.85,29.70,19,4,27,0.00
2013-3-24,46,38,30,32,24,19,77,59,42,29.88,29.70,14,3,18,0.00
2013-3-25,45,38,32,33,29,25,89,70,47,29.75,29.43,17,4,22,0.02
2013-3-26,47,39,31,32,28,23,83,65,42,29.81,29.51,8,2,17,0.00
2013-3-27,53,41,27,29,25,22,85,57,33,29.88,29.76,12,3,17,0.00
2013-3-28,48,43,39,36,32,28,81,67,52,30.04,29.87,12,2,17,0.00
2013-3-29,57,48,36,36,32,28,85,56,35,30.07,29.97,13,2,16,0.00
2013-3-30,57,47,36,32,27,18,80,49,23,30.11,30.02,13,2,16,0.00
2013-3-31,55,42,28,45,34,26,92,74,41,30.13,29.64,14,3,17,0.18